createdAt,value
2018-06-20T00:02:17.536Z,97630.05
2018-06-20T00:04:44.707Z,97635.16
2018-06-20T00:07:11.933Z,97631.16
2018-06-20T00:09:39.084Z,97627.36
2018-06-20T00:12:06.216Z,97633.33
2018-06-20T00:14:33.382Z,97630.23
2018-06-20T00:17:00.512Z,97626.38
2018-06-20T00:19:27.656Z,97635.94
2018-06-20T00:21:54.785Z,97628.80
2018-06-20T00:24:21.923Z,97621.16
2018-06-20T00:26:49.157Z,97623.08
2018-06-20T00:29:16.297Z,97623.95
2018-06-20T00:31:43.493Z,97614.27
2018-06-20T00:34:10.599Z,97616.97
2018-06-20T00:36:37.779Z,97606.62
2018-06-20T00:39:06.969Z,97610.84
2018-06-20T00:41:34.248Z,97609.05
2018-06-20T00:44:01.372Z,97606.91
2018-06-20T00:46:28.502Z,97606.46
2018-06-20T00:48:55.667Z,97598.34
2018-06-20T00:51:22.805Z,97602.83
2018-06-20T00:53:49.948Z,97592.09
2018-06-20T00:56:23.703Z,97598.45
2018-06-20T00:58:50.918Z,97599.02
2018-06-20T01:01:18.301Z,97604.12
2018-06-20T01:03:45.490Z,97603.23
2018-06-20T01:06:12.952Z,97601.91
2018-06-20T01:08:40.184Z,97606.46
2018-06-20T01:11:07.328Z,97606.02
2018-06-20T01:13:34.467Z,97601.45
2018-06-20T01:16:01.576Z,97605.29
2018-06-20T01:18:28.756Z,97607.16
2018-06-20T01:20:55.845Z,97607.91
2018-06-20T01:23:23.019Z,97606.86
2018-06-20T01:25:50.860Z,97614.87
2018-06-20T01:28:19.857Z,97613.47
2018-06-20T01:30:47.379Z,97614.77
2018-06-20T01:33:14.548Z,97613.43
2018-06-20T01:35:41.800Z,97610.83
2018-06-20T01:38:08.956Z,97612.61
2018-06-20T01:40:36.057Z,97610.76
2018-06-20T01:43:03.232Z,97613.44
2018-06-20T01:45:30.392Z,97611.87
2018-06-20T01:47:57.500Z,97609.98
2018-06-20T01:50:25.558Z,97609.64
2018-06-20T01:52:52.677Z,97609.17
2018-06-20T01:55:19.811Z,97602.45
2018-06-20T01:57:46.927Z,97614.78
2018-06-20T02:00:14.067Z,97611.56
2018-06-20T02:02:41.217Z,97608.17
2018-06-20T02:05:08.364Z,97611.75
2018-06-20T02:07:35.567Z,97602.46
2018-06-20T02:10:03.480Z,97607.06
2018-06-20T02:12:30.632Z,97608.98
2018-06-20T02:14:57.827Z,97614.77
2018-06-20T02:17:24.969Z,97610.77
2018-06-20T02:19:52.101Z,97609.56
2018-06-20T02:22:19.282Z,97607.66
2018-06-20T02:24:46.404Z,97610.40
2018-06-20T02:27:13.518Z,97611.41
2018-06-20T02:29:40.663Z,97609.47
2018-06-20T02:32:07.784Z,97608.45
2018-06-20T02:34:34.917Z,97604.44
2018-06-20T02:37:02.048Z,97605.74
2018-06-20T02:39:29.197Z,97606.23
2018-06-20T02:41:56.331Z,97608.06
2018-06-20T02:44:23.500Z,97608.39
2018-06-20T02:46:50.622Z,97599.96
2018-06-20T02:49:17.764Z,97602.14
2018-06-20T02:51:44.861Z,97600.50
2018-06-20T02:54:12.041Z,97600.50
2018-06-20T02:56:39.140Z,97600.39
2018-06-20T02:59:06.321Z,97592.20
2018-06-20T03:01:33.452Z,97591.50
2018-06-20T03:04:00.565Z,97596.12
2018-06-20T03:06:27.713Z,97593.34
2018-06-20T03:09:00.905Z,97561.93
2018-06-20T03:11:28.060Z,97595.78
2018-06-20T03:13:55.205Z,97595.58
2018-06-20T03:16:22.364Z,97596.14
2018-06-20T03:18:49.530Z,97596.99
2018-06-20T03:21:16.709Z,97597.38
2018-06-20T03:23:43.882Z,97593.92
2018-06-20T03:26:10.981Z,97595.91
2018-06-20T03:28:38.093Z,97595.23
2018-06-20T03:31:05.297Z,97592.56
2018-06-20T03:33:32.429Z,97596.60
2018-06-20T03:35:59.563Z,97592.60
2018-06-20T03:38:26.692Z,97601.48
2018-06-20T03:40:53.808Z,97600.11
2018-06-20T03:43:20.952Z,97599.26
2018-06-20T03:45:48.087Z,97595.73
2018-06-20T03:48:15.216Z,97600.19
2018-06-20T03:50:42.380Z,97602.97
2018-06-20T03:53:09.493Z,97604.77
2018-06-20T03:55:36.621Z,97608.55
2018-06-20T03:58:03.760Z,97611.51
2018-06-20T04:00:30.944Z,97609.30
2018-06-20T04:02:58.120Z,97606.61
2018-06-20T04:05:28.397Z,97611.17
2018-06-20T04:07:55.537Z,97605.91
2018-06-20T04:10:22.689Z,97615.44
2018-06-20T04:12:49.869Z,97607.20
2018-06-20T04:15:16.969Z,97617.88
2018-06-20T04:17:44.128Z,97612.47
2018-06-20T04:20:11.249Z,97608.35
2018-06-20T04:22:38.420Z,97611.35
2018-06-20T04:25:05.581Z,97608.72
2018-06-20T04:27:32.751Z,97608.95
2018-06-20T04:29:59.869Z,97610.05
2018-06-20T04:32:27.004Z,97610.58
2018-06-20T04:34:54.113Z,97610.53
2018-06-20T04:37:21.252Z,97609.23
2018-06-20T04:39:48.392Z,97606.46
2018-06-20T04:42:15.531Z,97609.38
2018-06-20T04:44:42.744Z,97608.27
2018-06-20T04:47:09.880Z,97608.16
2018-06-20T04:49:37.012Z,97609.52
2018-06-20T04:52:04.157Z,97605.75
2018-06-20T04:54:31.340Z,97600.52
2018-06-20T04:56:58.490Z,97605.64
2018-06-20T04:59:25.631Z,97605.43
2018-06-20T05:01:52.782Z,97607.42
2018-06-20T05:04:20.034Z,97600.78
2018-06-20T05:06:47.181Z,97600.22
2018-06-20T05:09:17.321Z,97597.30
2018-06-20T05:11:44.480Z,97594.61
2018-06-20T05:14:11.623Z,97596.27
2018-06-20T05:16:38.794Z,97594.83
2018-06-20T05:19:05.893Z,97592.91
2018-06-20T05:21:33.002Z,97597.81
2018-06-20T05:24:00.122Z,97593.56
2018-06-20T05:26:27.249Z,97594.95
2018-06-20T05:28:54.376Z,97591.38
2018-06-20T05:31:21.523Z,97589.20
2018-06-20T05:33:48.679Z,97591.77
2018-06-20T05:36:15.837Z,97591.57
2018-06-20T05:38:43.028Z,97596.23
2018-06-20T05:41:10.161Z,97587.85
2018-06-20T05:43:37.312Z,97589.44
2018-06-20T05:46:04.488Z,97586.09
2018-06-20T05:48:31.627Z,97591.60
2018-06-20T05:50:58.769Z,97591.95
2018-06-20T05:53:25.977Z,97591.06
2018-06-20T05:55:53.145Z,97593.61
2018-06-20T05:58:20.237Z,97593.61
2018-06-20T06:00:47.401Z,97589.94
2018-06-20T06:03:14.599Z,97587.06
2018-06-20T06:05:42.345Z,97589.53
2018-06-20T06:08:11.721Z,97584.25
2018-06-20T06:10:39.761Z,97592.65
2018-06-20T06:13:06.919Z,97584.58
2018-06-20T06:15:34.052Z,97581.73
2018-06-20T06:18:01.240Z,97580.66
2018-06-20T06:20:28.396Z,97581.45
2018-06-20T06:22:55.487Z,97584.73
2018-06-20T06:25:22.636Z,97578.27
2018-06-20T06:27:49.799Z,97578.19
2018-06-20T06:30:16.962Z,97576.86
2018-06-20T06:32:44.149Z,97573.62
2018-06-20T06:35:11.307Z,97574.19
2018-06-20T06:37:38.481Z,97572.94
2018-06-20T06:40:05.640Z,97586.92
2018-06-20T06:42:32.812Z,97580.55
2018-06-20T06:44:59.961Z,97583.06
2018-06-20T06:47:27.117Z,97581.52
2018-06-20T06:49:54.367Z,97578.02
2018-06-20T06:52:21.548Z,97577.87
2018-06-20T06:54:48.656Z,97575.53
2018-06-20T06:57:16.114Z,97574.42
2018-06-20T06:59:43.284Z,97573.29
2018-06-20T07:02:10.396Z,97572.91
2018-06-20T07:04:37.608Z,97575.77
2018-06-20T07:07:04.788Z,97569.95
2018-06-20T07:09:31.964Z,97566.72
2018-06-20T07:11:59.136Z,97570.20
2018-06-20T07:14:26.264Z,97571.91
2018-06-20T07:16:54.039Z,97574.28
2018-06-20T07:19:21.194Z,97571.27
2018-06-20T07:21:48.416Z,97566.14
2018-06-20T07:24:15.606Z,97569.27
2018-06-20T07:26:42.756Z,97562.48
2018-06-20T07:29:09.937Z,97562.64
2018-06-20T07:31:37.112Z,97560.59
2018-06-20T07:34:04.414Z,97558.04
2018-06-20T07:36:31.630Z,97558.31
2018-06-20T07:38:58.774Z,97561.64
2018-06-20T07:41:25.958Z,97560.52
2018-06-20T07:43:53.145Z,97552.90
2018-06-20T07:46:20.341Z,97549.64
2018-06-20T07:48:47.480Z,97550.96
2018-06-20T07:51:14.605Z,97547.30
2018-06-20T07:53:41.731Z,97549.67
2018-06-20T07:56:08.874Z,97544.44
2018-06-20T07:58:57.755Z,97541.39
2018-06-20T08:01:42.119Z,97544.34
2018-06-20T08:04:14.953Z,97542.70
2018-06-20T08:06:47.843Z,97541.24
2018-06-20T08:09:20.698Z,97546.49
2018-06-20T08:11:53.683Z,97542.56
2018-06-20T08:14:26.638Z,97539.13
2018-06-20T08:16:59.660Z,97542.22
2018-06-20T08:19:32.333Z,97544.85
2018-06-20T08:21:59.486Z,97534.23
2018-06-20T08:24:26.920Z,97536.65
2018-06-20T08:26:54.098Z,97532.66
2018-06-20T08:29:21.249Z,97530.45
2018-06-20T08:31:48.381Z,97528.74
2018-06-20T08:34:16.141Z,97521.98
2018-06-20T08:36:43.252Z,97521.84
2018-06-20T08:39:10.533Z,97529.16
2018-06-20T08:41:37.658Z,97514.55
2018-06-20T08:44:04.778Z,97523.34
2018-06-20T08:46:32.055Z,97515.68
2018-06-20T08:48:59.229Z,97520.69
2018-06-20T08:51:26.417Z,97509.92
2018-06-20T08:53:53.552Z,97520.81
2018-06-20T08:56:20.669Z,97514.50
2018-06-20T08:58:47.843Z,97510.78
2018-06-20T09:01:15.002Z,97514.62
2018-06-20T09:03:43.405Z,97507.53
2018-06-20T09:06:16.161Z,97514.11
2018-06-20T09:08:49.149Z,97510.12
2018-06-20T09:11:22.064Z,97511.04
2018-06-20T09:13:55.055Z,97512.00
2018-06-20T09:16:27.976Z,97500.56
2018-06-20T09:19:00.724Z,97501.15
2018-06-20T09:21:27.907Z,97503.73
2018-06-20T09:23:55.025Z,97501.48
2018-06-20T09:26:22.233Z,97501.09
2018-06-20T09:28:49.431Z,97494.33
2018-06-20T09:31:16.595Z,97492.69
2018-06-20T09:33:43.774Z,97491.29
2018-06-20T09:36:10.940Z,97493.48
2018-06-20T09:38:38.098Z,97492.42
2018-06-20T09:41:05.249Z,97486.64
2018-06-20T09:43:32.403Z,97484.56
2018-06-20T09:45:59.616Z,97487.89
2018-06-20T09:48:26.818Z,97480.25
2018-06-20T09:50:57.114Z,97481.19
2018-06-20T09:53:24.480Z,97491.61
2018-06-20T09:55:51.662Z,97484.03
2018-06-20T09:58:18.824Z,97478.74
2018-06-20T10:00:51.716Z,97489.13
2018-06-20T10:03:24.730Z,97482.72
2018-06-20T10:05:57.474Z,97480.09
2018-06-20T10:08:30.385Z,97480.86
2018-06-20T10:11:03.111Z,97479.67
2018-06-20T10:13:34.825Z,97477.40
2018-06-20T10:16:02.020Z,97471.73
2018-06-20T10:18:29.142Z,97470.52
2018-06-20T10:20:56.348Z,97471.44
2018-06-20T10:23:23.530Z,97470.95
2018-06-20T10:25:50.683Z,97473.62
2018-06-20T10:28:17.856Z,97469.42
2018-06-20T10:30:44.971Z,97465.43
2018-06-20T10:33:12.092Z,97461.66
2018-06-20T10:35:39.276Z,97460.10
2018-06-20T10:38:06.457Z,97456.83
2018-06-20T10:40:33.614Z,97453.43
2018-06-20T10:43:00.771Z,97445.34
2018-06-20T10:46:36.477Z,97447.61
2018-06-20T10:49:03.652Z,97438.20
2018-06-20T10:51:30.784Z,97446.19
2018-06-20T10:54:01.966Z,97438.91
2018-06-20T10:56:34.780Z,97433.23
2018-06-20T10:59:07.591Z,97432.77
2018-06-20T11:01:40.398Z,97427.50
2018-06-20T11:05:11.044Z,97425.90
2018-06-20T11:07:44.028Z,97425.27
2018-06-20T11:10:16.892Z,97416.66
2018-06-20T11:12:49.784Z,97408.63
2018-06-20T11:15:17.035Z,97411.73
2018-06-20T11:17:44.167Z,97404.55
2018-06-20T11:20:16.912Z,97405.03
2018-06-20T11:22:44.500Z,97402.21
2018-06-20T11:25:11.654Z,97350.31
2018-06-20T11:27:38.807Z,97400.16
2018-06-20T11:30:06.019Z,97395.58
2018-06-20T11:32:33.117Z,97391.66
2018-06-20T11:35:00.257Z,97389.09
2018-06-20T11:37:27.448Z,97388.78
2018-06-20T11:39:54.634Z,97382.95
2018-06-20T11:42:21.797Z,97376.17
2018-06-20T11:44:48.988Z,97375.56
2018-06-20T11:47:21.896Z,97367.35
2018-06-20T11:49:49.043Z,97370.00
2018-06-20T11:52:21.985Z,97368.40
2018-06-20T11:54:49.176Z,97356.37
2018-06-20T11:57:16.321Z,97353.78
2018-06-20T11:59:49.213Z,97357.09
2018-06-20T12:02:21.918Z,97351.16
2018-06-20T12:04:54.810Z,97345.70
2018-06-20T12:07:27.671Z,97348.59
2018-06-20T12:10:00.588Z,97343.38
2018-06-20T12:12:33.450Z,97344.90
2018-06-20T12:15:06.289Z,97349.81
2018-06-20T12:17:39.090Z,97344.25
2018-06-20T12:20:11.837Z,97340.75
2018-06-20T12:22:44.617Z,97325.39
2018-06-20T12:25:17.597Z,97328.12
2018-06-20T12:27:50.350Z,97323.33
2018-06-20T12:30:23.308Z,97324.81
2018-06-20T12:32:56.189Z,97322.36
2018-06-20T12:35:28.901Z,97316.88
2018-06-20T12:38:01.851Z,97309.52
2018-06-20T12:40:34.528Z,97308.52
2018-06-20T12:43:07.397Z,97301.89
2018-06-20T12:45:34.648Z,97303.27
2018-06-20T12:48:01.792Z,97304.05
2018-06-20T12:50:28.967Z,97296.63
2018-06-20T12:52:56.771Z,97291.04
2018-06-20T12:55:24.937Z,97298.23
2018-06-20T12:57:52.976Z,97292.69
2018-06-20T13:00:20.159Z,97292.59
2018-06-20T13:02:47.344Z,97291.41
2018-06-20T13:05:14.769Z,97283.56
2018-06-20T13:07:41.949Z,97285.38
2018-06-20T13:10:09.129Z,97284.41
2018-06-20T13:12:36.416Z,97283.84
2018-06-20T13:15:03.745Z,97282.06
2018-06-20T13:17:31.567Z,97281.30
2018-06-20T13:19:58.788Z,97284.84
2018-06-20T13:22:26.040Z,97282.34
2018-06-20T13:24:53.421Z,97275.34
2018-06-20T13:27:26.227Z,97272.39
2018-06-20T13:29:58.993Z,97266.73
2018-06-20T13:32:32.008Z,97267.16
2018-06-20T13:35:04.694Z,97263.59
2018-06-20T13:37:37.620Z,97255.55
2018-06-20T13:40:10.689Z,97259.77
2018-06-20T13:42:43.652Z,97250.22
2018-06-20T13:45:16.537Z,97259.89
2018-06-20T13:47:49.420Z,97253.35
2018-06-20T13:50:16.550Z,97252.35
2018-06-20T13:52:43.712Z,97250.84
2018-06-20T13:55:10.860Z,97243.03
2018-06-20T13:57:38.082Z,97250.00
2018-06-20T14:00:05.477Z,97245.25
2018-06-20T14:02:32.654Z,97243.30
2018-06-20T14:05:00.288Z,97250.02
2018-06-20T14:07:27.423Z,97243.06
2018-06-20T14:09:54.592Z,97242.25
2018-06-20T14:12:21.751Z,97234.81
2018-06-20T14:14:48.944Z,97231.61
2018-06-20T14:17:16.134Z,97233.68
2018-06-20T14:19:48.908Z,97225.09
2018-06-20T14:22:16.045Z,97222.27
2018-06-20T14:24:43.243Z,97218.94
2018-06-20T14:27:10.441Z,97221.09
2018-06-20T14:29:41.989Z,97213.53
2018-06-20T14:32:14.991Z,97213.68
2018-06-20T14:34:47.771Z,97207.67
2018-06-20T14:37:20.648Z,97209.66
2018-06-20T14:39:53.624Z,97208.81
2018-06-20T14:42:26.521Z,97206.39
2018-06-20T14:44:59.452Z,97198.41
2018-06-20T14:47:26.596Z,97196.92
2018-06-20T14:49:53.787Z,97199.56
2018-06-20T14:52:20.953Z,97198.80
2018-06-20T14:54:48.073Z,97199.14
2018-06-20T14:57:15.312Z,97200.38
2018-06-20T14:59:42.492Z,97195.21
2018-06-20T15:02:09.633Z,97195.08
2018-06-20T15:04:36.772Z,97189.56
2018-06-20T15:07:04.097Z,97185.69
2018-06-20T15:09:31.263Z,97182.58
2018-06-20T15:11:58.408Z,97182.49
2018-06-20T15:14:25.713Z,97180.03
2018-06-20T15:16:58.554Z,97177.50
2018-06-20T15:19:25.694Z,97171.41
2018-06-20T15:21:52.867Z,97171.52
2018-06-20T15:24:20.139Z,97169.86
2018-06-20T15:26:52.840Z,97167.89
2018-06-20T15:29:25.603Z,97161.28
2018-06-20T15:31:58.628Z,97160.22
2018-06-20T15:34:31.609Z,97156.60
2018-06-20T15:37:04.370Z,97154.48
2018-06-20T15:39:31.561Z,97155.14
2018-06-20T15:41:58.757Z,97151.55
2018-06-20T15:44:25.948Z,97149.35
2018-06-20T15:46:53.193Z,97142.33
2018-06-20T15:49:20.404Z,97145.45
2018-06-20T15:51:47.600Z,97137.18
2018-06-20T15:54:14.766Z,97136.36
2018-06-20T15:56:41.907Z,97131.36
2018-06-20T15:59:09.135Z,97133.70
2018-06-20T16:01:36.369Z,97131.88
2018-06-20T16:04:03.639Z,97130.83
2018-06-20T16:06:30.793Z,97124.58
2018-06-20T16:09:03.755Z,97124.83
2018-06-20T16:11:30.953Z,97125.23
2018-06-20T16:13:58.195Z,97116.19
2018-06-20T16:16:25.407Z,97112.75
2018-06-20T16:18:58.390Z,97113.61
2018-06-20T16:22:34.121Z,97109.87
2018-06-20T16:25:06.957Z,97113.31
2018-06-20T16:27:39.813Z,97108.84
2018-06-20T16:30:12.493Z,97108.69
2018-06-20T16:32:39.609Z,97101.11
2018-06-20T16:35:06.897Z,97098.58
2018-06-20T16:37:34.107Z,97103.34
2018-06-20T16:40:01.502Z,97102.91
2018-06-20T16:42:28.670Z,97095.27
2018-06-20T16:44:55.938Z,97089.20
2018-06-20T16:47:23.131Z,97101.72
2018-06-20T16:49:50.310Z,97102.05
2018-06-20T16:52:17.465Z,97093.27
2018-06-20T16:54:44.689Z,97091.92
2018-06-20T16:57:11.855Z,97092.00
2018-06-20T16:59:38.971Z,97090.51
2018-06-20T17:02:11.870Z,97089.44
2018-06-20T17:04:39.198Z,97082.47
2018-06-20T17:07:06.447Z,97080.05
2018-06-20T17:09:33.636Z,97085.44
2018-06-20T17:12:06.636Z,97086.20
2018-06-20T17:14:39.474Z,97083.38
2018-06-20T17:17:12.452Z,97075.97
2018-06-20T17:19:45.512Z,97083.27
2018-06-20T17:22:18.467Z,97067.80
2018-06-20T17:24:51.466Z,97075.25
2018-06-20T17:27:18.827Z,97072.63
2018-06-20T17:29:46.007Z,97070.15
2018-06-20T17:32:13.521Z,97070.94
2018-06-20T17:34:40.706Z,97066.93
2018-06-20T17:37:07.885Z,97064.13
2018-06-20T17:39:35.086Z,97063.97
2018-06-20T17:42:02.246Z,97056.19
2018-06-20T17:44:29.433Z,97060.54
2018-06-20T17:46:56.559Z,97058.20
2018-06-20T17:49:23.771Z,97055.36
2018-06-20T17:51:50.943Z,97060.09
2018-06-20T17:54:18.083Z,97057.98
2018-06-20T17:56:45.233Z,97054.54
2018-06-20T17:59:12.394Z,97060.66
2018-06-20T18:01:39.566Z,97056.62
2018-06-20T18:04:06.696Z,97055.61
2018-06-20T18:06:39.671Z,97052.36
2018-06-20T18:09:12.644Z,97050.40
2018-06-20T18:11:45.591Z,97050.50
2018-06-20T18:14:18.616Z,97048.48
2018-06-20T18:16:51.555Z,97053.52
2018-06-20T18:19:18.700Z,97047.25
2018-06-20T18:21:45.871Z,97049.27
2018-06-20T18:24:13.062Z,97043.23
2018-06-20T18:26:40.259Z,97044.33
2018-06-20T18:29:07.425Z,97047.41
2018-06-20T18:31:34.712Z,97046.14
2018-06-20T18:34:01.862Z,97046.98
2018-06-20T18:36:29.031Z,97045.80
2018-06-20T18:38:56.324Z,97046.89
2018-06-20T18:41:23.537Z,97042.20
2018-06-20T18:43:50.928Z,97044.67
2018-06-20T18:46:18.076Z,97039.05
2018-06-20T18:48:45.315Z,97045.69
2018-06-20T18:51:12.528Z,97039.43
2018-06-20T18:53:39.656Z,97041.30
2018-06-20T18:56:06.819Z,97038.09
2018-06-20T18:58:39.948Z,97038.48
2018-06-20T19:01:12.909Z,97045.27
2018-06-20T19:03:45.928Z,97048.86
2018-06-20T19:06:18.606Z,97043.08
2018-06-20T19:08:53.170Z,97042.42
2018-06-20T19:11:20.241Z,97040.02
2018-06-20T19:13:47.412Z,97045.30
2018-06-20T19:16:14.641Z,97042.17
2018-06-20T19:18:41.876Z,97049.45
2018-06-20T19:21:09.067Z,97047.29
2018-06-20T19:23:36.240Z,97042.59
2018-06-20T19:26:03.428Z,97047.82
2018-06-20T19:28:30.635Z,97048.38
2018-06-20T19:30:57.833Z,97049.84
2018-06-20T19:33:25.016Z,97056.25
2018-06-20T19:35:52.218Z,97057.02
2018-06-20T19:38:19.392Z,97055.06
2018-06-20T19:40:46.568Z,97057.60
2018-06-20T19:43:13.779Z,97058.48
2018-06-20T19:45:40.918Z,97057.65
2018-06-20T19:48:08.117Z,97065.89
2018-06-20T19:50:35.346Z,97064.85
2018-06-20T19:53:02.569Z,97066.92
2018-06-20T19:55:29.837Z,97069.45
2018-06-20T19:57:57.040Z,97070.86
2018-06-20T20:00:24.286Z,97074.41
2018-06-20T20:02:51.497Z,97070.54
2018-06-20T20:05:19.595Z,97080.91
2018-06-20T20:07:46.776Z,97076.53
2018-06-20T20:10:13.954Z,97076.31
2018-06-20T20:12:41.212Z,97079.23
2018-06-20T20:15:08.723Z,97072.05
2018-06-20T20:17:36.006Z,97075.52
2018-06-20T20:20:03.608Z,97038.67
2018-06-20T20:22:30.781Z,97070.50
2018-06-20T20:24:57.932Z,97071.03
2018-06-20T20:27:25.050Z,97075.92
2018-06-20T20:29:52.200Z,97067.81
2018-06-20T20:32:19.674Z,97072.92
2018-06-20T20:34:46.817Z,97061.42
2018-06-20T20:37:13.979Z,97071.74
2018-06-20T20:39:41.187Z,97062.66
2018-06-20T20:42:08.359Z,97066.73
2018-06-20T20:44:35.503Z,97066.55
2018-06-20T20:47:02.697Z,97064.12
2018-06-20T20:49:29.852Z,97062.79
2018-06-20T20:51:57.021Z,97063.20
2018-06-20T20:54:24.203Z,97063.59
2018-06-20T20:56:51.377Z,97065.70
2018-06-20T20:59:18.572Z,97063.58
2018-06-20T21:01:45.737Z,97069.75
2018-06-20T21:04:12.904Z,97061.85
2018-06-20T21:06:40.010Z,97068.22
2018-06-20T21:09:08.703Z,97072.80
2018-06-20T21:11:35.878Z,97065.50
2018-06-20T21:14:03.046Z,97063.02
2018-06-20T21:16:30.241Z,97067.25
2018-06-20T21:18:58.041Z,97063.59
2018-06-20T21:21:25.159Z,97067.04
2018-06-20T21:23:52.255Z,97067.51
2018-06-20T21:26:19.393Z,97062.09
2018-06-20T21:28:46.536Z,97063.09
2018-06-20T21:31:13.688Z,97067.73
2018-06-20T21:33:40.832Z,97066.41
2018-06-20T21:36:08.060Z,97061.51
2018-06-20T21:38:35.253Z,97068.57
2018-06-20T21:41:02.384Z,97062.23
2018-06-20T21:43:29.601Z,97063.12
2018-06-20T21:45:56.732Z,97064.30
2018-06-20T21:48:23.868Z,97066.59
2018-06-20T21:50:51.037Z,97067.45
2018-06-20T21:53:18.227Z,97060.07
2018-06-20T21:55:45.320Z,97061.59
2018-06-20T21:58:12.448Z,97061.21
2018-06-20T22:00:39.616Z,97060.49
2018-06-20T22:03:06.919Z,97054.77
2018-06-20T22:05:34.088Z,97054.16
2018-06-20T22:08:01.186Z,97060.53
2018-06-20T22:10:28.352Z,97051.41
2018-06-20T22:12:55.484Z,97055.84
2018-06-20T22:15:22.648Z,97052.56
2018-06-20T22:17:49.803Z,97046.19
2018-06-20T22:20:16.927Z,97047.54
2018-06-20T22:22:44.092Z,97042.46
2018-06-20T22:25:11.289Z,97044.58
2018-06-20T22:27:38.404Z,97036.80
2018-06-20T22:30:05.552Z,97041.56
2018-06-20T22:32:32.720Z,97030.84
2018-06-20T22:34:59.879Z,97033.16
2018-06-20T22:37:27.012Z,97028.97
2018-06-20T22:39:54.154Z,97033.03
2018-06-20T22:42:21.331Z,97033.90
2018-06-20T22:44:48.510Z,97035.15
2018-06-20T22:47:15.667Z,97024.67
2018-06-20T22:49:42.776Z,97031.59
2018-06-20T22:52:09.927Z,97024.91
2018-06-20T22:54:37.089Z,97024.41
2018-06-20T22:57:04.593Z,97026.72
2018-06-20T22:59:31.781Z,97028.92
2018-06-20T23:01:58.983Z,97026.14
2018-06-20T23:04:26.159Z,97025.59
2018-06-20T23:06:53.327Z,97028.64
2018-06-20T23:09:20.516Z,97024.34
2018-06-20T23:11:48.839Z,97015.05
2018-06-20T23:14:15.917Z,97016.59
2018-06-20T23:16:43.144Z,97016.86
2018-06-20T23:19:10.913Z,97019.69
2018-06-20T23:21:38.171Z,97015.72
2018-06-20T23:24:05.319Z,97012.31
2018-06-20T23:26:32.477Z,97008.63
2018-06-20T23:28:59.829Z,96999.09
2018-06-20T23:31:26.969Z,96997.64
2018-06-20T23:33:54.152Z,97002.86
2018-06-20T23:36:21.456Z,97001.34
2018-06-20T23:38:48.599Z,96995.41
2018-06-20T23:41:15.748Z,96996.43
2018-06-20T23:43:43.448Z,96998.14
2018-06-20T23:46:11.028Z,96996.09
2018-06-20T23:48:38.136Z,96994.30
2018-06-20T23:51:05.315Z,96998.20
2018-06-20T23:53:32.549Z,96991.91
2018-06-20T23:55:59.707Z,96996.22
2018-06-20T23:58:26.876Z,96987.55
